Impacts METAR Board
IDs:

KLGA - New York/La Guardia, NY, US

Updated at: 0000 UTC 27 Apr 2018
Potential Impact None Slight Moderate High
Time 26/12Z 26/13Z 26/14Z 26/15Z 26/16Z 26/17Z 26/18Z 26/19Z 26/20Z 26/21Z 26/22Z 26/23Z 27/00Z
Temp58 57 58 59 62 63 65 67 68 69 70 69 64
Dewpt47 46 42 40 38 39 39 38 40 40 40 40 40
Altim29.68 29.69 29.71 29.74 29.73 29.73 29.73 29.75 29.74 29.75 29.77 29.78 29.81
VIS10 10 10 10 10 10 10 10 10 10 10 10 10
CIG-- -- -- -- -- -- -- -- -- -- -- -- --
CoverSCTSCTFEWFEWFEWSCTSCTSCTSCTSCTSCTSCTSCT
FltCatVFRVFRVFRVFRVFRVFRVFRVFRVFRVFRVFRVFRVFR
WX--------------------------
WDir290290290280290290290260300260250260320
WSpd18 16 18 22 16 11 15 11 11 14 10 10 11
WGst22 22 25 25 22 -- 29 -- 18 -- -- -- --
Raw hourly METARs
KLGA 261151Z 29018G22KT 10SM FEW015 SCT060 14/08 A2968 RMK AO2 SLP051 60000 70029 T01440083 10150 20122 51031
KLGA 261251Z 29016G22KT 10SM FEW027 SCT060 14/08 A2969 RMK AO2 SLP055 T01390078
KLGA 261351Z 29018G25KT 10SM FEW030 FEW250 14/06 A2971 RMK AO2 SLP060 T01440056
KLGA 261451Z 28022G25KT 10SM FEW032 FEW250 15/04 A2974 RMK AO2 SLP069 T01500044 53018
KLGA 261551Z 29016G22KT 10SM FEW035 FEW250 17/03 A2973 RMK AO2 PK WND 30026/1453 SLP068 T01670033
KLGA 261651Z 29011KT 10SM FEW038 SCT250 17/04 A2973 RMK AO2 SLP067 T01720039
KLGA 261751Z 29015G29KT 10SM FEW055 SCT250 18/04 A2973 RMK AO2 PK WND 31029/1748 SLP068 T01830039 10183 20139 55001
KLGA 261851Z 26011KT 10SM FEW055 SCT250 19/03 A2975 RMK AO2 SLP074 T01940033
KLGA 261951Z 30011G18KT 10SM FEW055 SCT250 20/04 A2974 RMK AO2 SLP070 T02000044
KLGA 262051Z 26014KT 10SM FEW055 SCT250 21/04 A2975 RMK AO2 SLP075 T02060044 51007
KLGA 262151Z 25010KT 10SM FEW070 SCT250 21/04 A2977 RMK AO2 SLP080 T02110044
KLGA 262251Z COR 26010KT 10SM FEW060 SCT250 21/04 A2978 RMK AO2 SLP084 T02060044
KLGA 262351Z 32011KT 10SM FEW060 SCT250 18/04 A2981 RMK AO2 SLP094 T01780044 10211 20178 53018



Page loaded:  00:29 UTC  |   05:29 PM Pacific  |   06:29 PM Mountain  |   07:29 PM Central  |   08:29 PM Eastern

 

ADVISORIES

FORECASTS

FORECASTS

OBSERVATIONS

USER TOOLS

ABOUT US